Time;durP1;ratioP1;P1;durP2;ratioP2;P2;SDS_P1;SDS_P2;PMS_P1;PMS_P2;Temp;Humidity;BMP_temperature;BMP_pressure;BME280_temperature;BME280_humidity;BME280_pressure;Samples;Min_cycle;Max_cycle;Signal;HPM_P1;HPM_P2
2022/07/19 00:01:50;;;;;;;8.80;4.10;;;;;;;16.98;62.99;99273.70;220144;1278;22586;-68
2022/07/19 00:06:54;;;;;;;6.10;4.20;;;;;;;17.01;62.89;99279.56;220114;1278;23861;-68
2022/07/19 00:11:57;;;;;;;6.20;4.30;;;;;;;17.04;62.85;99280.42;220072;1277;23015;-69
2022/07/19 00:16:59;;;;;;;4.70;3.60;;;;;;;17.10;62.76;99283.32;219830;1277;22648;-68
2022/07/19 00:22:02;;;;;;;5.20;3.60;;;;;;;17.15;62.53;99281.21;220188;1278;22730;-69
2022/07/19 00:27:04;;;;;;;7.20;4.10;;;;;;;17.18;62.28;99278.94;220184;1277;22711;-70
2022/07/19 00:32:07;;;;;;;8.90;4.20;;;;;;;17.22;62.05;99278.11;220153;1277;23843;-69
2022/07/19 00:37:09;;;;;;;7.60;4.30;;;;;;;17.24;61.82;99273.08;220046;1276;22577;-68
2022/07/19 00:42:14;;;;;;;6.80;4.30;;;;;;;17.23;61.69;99274.73;220175;1278;26404;-68
2022/07/19 00:47:17;;;;;;;8.10;4.00;;;;;;;17.21;61.54;99279.35;219973;1278;25327;-68
2022/07/19 00:52:20;;;;;;;7.80;4.20;;;;;;;17.16;61.42;99280.85;220044;1277;22553;-69
2022/07/19 00:57:24;;;;;;;5.80;4.40;;;;;;;17.10;61.33;99286.48;218806;1277;1559334;-69
2022/07/19 01:02:37;;;;;;;7.60;4.30;;;;;;;17.02;61.44;99282.88;220097;1277;25376;-68
2022/07/19 01:07:41;;;;;;;5.40;4.10;;;;;;;16.93;61.58;99279.25;220128;1277;25378;-68
2022/07/19 01:12:44;;;;;;;6.30;3.80;;;;;;;16.85;61.66;99284.56;220310;1277;25284;-67
2022/07/19 01:17:48;;;;;;;6.10;3.90;;;;;;;16.79;61.90;99283.19;220133;1277;24820;-68
2022/07/19 01:22:50;;;;;;;6.70;4.30;;;;;;;16.73;62.13;99281.95;220138;1276;25267;-68
2022/07/19 01:28:06;;;;;;;5.70;4.40;;;;;;;16.70;62.25;99275.59;219958;1277;22731;-69
2022/07/19 01:33:19;;;;;;;6.20;3.90;;;;;;;16.67;62.28;99270.45;220014;1277;25431;-68
2022/07/19 01:38:21;;;;;;;7.60;3.80;;;;;;;16.61;62.53;99263.79;220105;1277;25340;-69
2022/07/19 01:43:24;;;;;;;5.10;4.10;;;;;;;16.55;62.70;99264.80;220083;1277;23810;-69
2022/07/19 01:48:26;;;;;;;6.10;3.80;;;;;;;16.48;62.86;99267.52;220080;1276;25308;-69
2022/07/19 01:53:28;;;;;;;5.80;3.80;;;;;;;16.41;62.80;99268.66;220173;1277;25252;-69
2022/07/19 01:58:31;;;;;;;6.30;4.10;;;;;;;16.34;62.99;99266.00;220069;1277;25262;-69
2022/07/19 02:03:36;;;;;;;5.70;4.00;;;;;;;16.27;63.12;99268.45;220060;1276;25235;-69
2022/07/19 02:08:42;;;;;;;6.00;4.30;;;;;;;16.21;63.26;99269.90;220075;1277;25252;-69
2022/07/19 02:13:44;;;;;;;5.90;4.00;;;;;;;16.18;63.51;99276.98;220089;1277;25271;-68
2022/07/19 02:18:49;;;;;;;6.60;4.40;;;;;;;16.13;63.56;99279.22;219972;1276;22586;-67
2022/07/19 02:24:02;;;;;;;5.70;4.00;;;;;;;16.07;63.67;99271.92;219967;1276;22560;-67
2022/07/19 02:29:06;;;;;;;6.80;4.00;;;;;;;16.00;63.82;99274.00;220107;1276;25251;-68
2022/07/19 02:34:12;;;;;;;5.80;4.20;;;;;;;15.94;64.09;99267.67;220160;1276;25465;-69
2022/07/19 02:39:14;;;;;;;5.80;3.90;;;;;;;15.88;64.17;99270.40;219994;1276;23015;-68
2022/07/19 02:44:17;;;;;;;6.00;4.80;;;;;;;15.82;64.37;99268.98;219904;1276;22554;-68
2022/07/19 02:49:20;;;;;;;8.90;4.70;;;;;;;15.78;64.60;99270.64;219971;1276;22538;-68
2022/07/19 02:54:23;;;;;;;6.20;4.40;;;;;;;15.72;64.82;99269.15;220162;1276;22707;-68
2022/07/19 02:59:25;;;;;;;9.60;4.40;;;;;;;15.68;65.09;99273.38;219949;1276;22726;-68
2022/07/19 03:04:27;;;;;;;5.70;4.10;;;;;;;15.63;65.15;99278.48;219959;1276;24327;-69
2022/07/19 03:09:30;;;;;;;6.80;4.70;;;;;;;15.58;65.27;99284.25;220168;1276;22537;-68
2022/07/19 03:14:32;;;;;;;5.60;4.40;;;;;;;15.53;65.31;99287.49;219977;1276;22584;-68
2022/07/19 03:19:35;;;;;;;5.30;4.40;;;;;;;15.50;65.61;99290.66;220090;1276;24286;-69
2022/07/19 03:24:37;;;;;;;7.50;4.90;;;;;;;15.49;65.79;99292.67;219996;1276;24287;-69
2022/07/19 03:29:39;;;;;;;8.30;5.00;;;;;;;15.49;65.93;99292.59;219962;1276;24278;-69
2022/07/19 03:34:43;;;;;;;7.80;4.70;;;;;;;15.51;66.07;99288.59;220179;1276;25408;-68
2022/07/19 03:39:46;;;;;;;6.80;4.10;;;;;;;15.54;66.12;99291.60;220054;1276;22579;-68
2022/07/19 03:44:48;;;;;;;6.60;4.70;;;;;;;15.55;66.24;99298.44;219982;1276;22613;-69
2022/07/19 03:50:33;;;;;;;7.90;4.20;;;;;;;15.53;66.28;99301.06;219847;1276;22542;-68
2022/07/19 03:55:48;;;;;;;7.70;4.50;;;;;;;15.51;66.49;99304.35;219861;1276;22605;-67
2022/07/19 04:00:51;;;;;;;6.20;4.60;;;;;;;15.59;66.75;99305.98;220037;1276;22741;-68
2022/07/19 04:05:53;;;;;;;6.60;4.10;;;;;;;15.83;66.74;99307.63;219854;1276;22544;-68
2022/07/19 04:10:58;;;;;;;16.00;5.10;;;;;;;15.95;66.50;99309.00;219928;1276;22891;-68
2022/07/19 04:16:01;;;;;;;8.70;4.30;;;;;;;16.05;66.50;99307.71;219935;1276;24378;-70
2022/07/19 04:21:03;;;;;;;6.40;4.90;;;;;;;16.14;66.26;99304.05;220158;1276;22681;-68
2022/07/19 04:26:05;;;;;;;6.40;4.30;;;;;;;16.14;66.30;99297.83;219887;1276;24528;-69
2022/07/19 04:31:08;;;;;;;7.60;4.90;;;;;;;16.15;66.24;99299.27;219774;1277;22948;-69
2022/07/19 04:36:17;;;;;;;10.60;4.70;;;;;;;16.15;66.29;99299.71;219848;1276;24309;-68
2022/07/19 04:41:19;;;;;;;7.30;4.40;;;;;;;16.13;66.36;99297.66;219963;1276;24295;-69
2022/07/19 04:51:51;;;;;;;8.10;5.20;;;;;;;16.21;66.49;99307.81;220105;1276;24818;-69
2022/07/19 04:57:03;;;;;;;10.30;5.50;;;;;;;16.36;66.50;99307.57;220082;1276;23047;-67
2022/07/19 05:02:06;;;;;;;8.70;4.90;;;;;;;16.55;66.56;99306.95;220167;1276;22550;-69
2022/07/19 05:07:09;;;;;;;10.70;5.70;;;;;;;16.75;66.29;99306.60;219823;1276;22749;-69
2022/07/19 05:12:29;;;;;;;12.00;4.90;;;;;;;16.95;66.05;99307.33;220232;1276;22573;-70
2022/07/19 05:23:22;;;;;;;7.20;4.40;;;;;;;17.41;65.32;99306.82;219881;1276;22632;-68
2022/07/19 05:28:34;;;;;;;8.10;4.10;;;;;;;17.63;65.06;99303.66;219911;1276;22585;-68
2022/07/19 05:33:45;;;;;;;8.80;3.90;;;;;;;17.85;64.62;99302.34;220191;1276;22562;-67
2022/07/19 05:39:00;;;;;;;7.70;4.00;;;;;;;18.06;64.22;99304.16;220042;1276;22625;-68
2022/07/19 05:44:50;;;;;;;6.90;3.70;;;;;;;18.27;63.64;99306.91;219987;1276;23958;-70
2022/07/19 05:50:23;;;;;;;7.30;3.90;;;;;;;18.50;63.43;99305.13;220033;1276;24280;-69
2022/07/19 05:55:29;;;;;;;12.10;4.20;;;;;;;18.82;63.26;99297.95;220280;1276;22632;-69
2022/07/19 06:06:31;;;;;;;6.10;3.90;;;;;;;19.37;62.22;99300.24;220529;1276;22546;-69
2022/07/19 06:11:33;;;;;;;6.10;3.70;;;;;;;19.61;61.54;99300.94;220762;1276;24910;-69
2022/07/19 06:16:48;;;;;;;7.10;3.50;;;;;;;19.83;61.20;99299.59;220649;1276;22572;-66
2022/07/19 06:27:32;;;;;;;5.40;3.70;;;;;;;20.32;60.49;99293.31;220075;1276;25346;-67
2022/07/19 06:32:36;;;;;;;6.90;3.70;;;;;;;20.55;60.20;99285.55;220105;1276;22823;-67
2022/07/19 06:37:38;;;;;;;5.80;3.40;;;;;;;20.81;59.96;99288.05;220272;1276;24211;-67
2022/07/19 06:43:03;;;;;;;8.40;5.80;;;;;;;21.10;59.53;99293.24;220034;1276;25268;-67
2022/07/19 06:48:05;;;;;;;4.40;3.20;;;;;;;21.40;59.19;99289.78;220013;1276;25258;-68
2022/07/19 06:53:08;;;;;;;5.00;3.20;;;;;;;21.66;58.36;99297.65;220012;1276;24360;-68
2022/07/19 06:58:13;;;;;;;4.00;2.70;;;;;;;21.92;57.78;99299.54;219893;1276;22707;-68
2022/07/19 07:03:17;;;;;;;5.60;2.50;;;;;;;22.19;57.16;99299.58;219987;1276;22575;-68
2022/07/19 07:08:20;;;;;;;3.00;2.40;;;;;;;22.50;56.29;99295.70;220214;1276;22558;-69
2022/07/19 07:13:22;;;;;;;2.80;2.20;;;;;;;22.82;55.52;99290.92;220303;1276;22499;-68
2022/07/19 07:18:25;;;;;;;7.50;2.80;;;;;;;23.14;54.51;99290.58;220357;1276;22662;-67
2022/07/19 07:23:28;;;;;;;3.40;2.30;;;;;;;23.43;53.55;99285.75;220094;1276;22681;-66
2022/07/19 07:28:30;;;;;;;7.90;2.90;;;;;;;23.75;52.39;99287.02;220105;1276;22623;-67
2022/07/19 07:33:32;;;;;;;5.00;2.50;;;;;;;24.09;51.94;99287.84;220095;1276;26033;-69
2022/07/19 07:38:35;;;;;;;4.20;2.80;;;;;;;24.41;51.45;99292.08;220315;1276;22551;-67
2022/07/19 07:43:37;;;;;;;3.00;2.50;;;;;;;24.64;50.05;99291.72;220176;1276;23811;-68
2022/07/19 07:48:39;;;;;;;5.20;2.90;;;;;;;24.87;49.41;99286.61;220499;1276;22560;-67
2022/07/19 07:53:43;;;;;;;2.50;2.00;;;;;;;25.14;48.82;99286.88;220341;1276;24327;-69
2022/07/19 07:58:45;;;;;;;4.60;2.70;;;;;;;25.39;47.32;99284.64;220209;1276;25319;-68
2022/07/19 08:03:50;;;;;;;3.10;2.00;;;;;;;25.52;46.17;99287.13;220137;1276;22712;-64
2022/07/19 08:08:52;;;;;;;3.30;2.20;;;;;;;25.71;46.21;99282.68;218983;1276;25567;-67
2022/07/19 08:13:54;;;;;;;3.40;2.40;;;;;;;25.97;45.75;99284.40;220110;1276;22545;-66
2022/07/19 08:18:57;;;;;;;3.40;2.80;;;;;;;26.21;45.10;99279.65;220248;1276;24329;-68
2022/07/19 08:24:00;;;;;;;2.10;1.90;;;;;;;26.35;44.15;99279.91;220193;1276;22704;-70
2022/07/19 08:29:10;;;;;;;3.10;2.20;;;;;;;26.51;43.37;99285.02;220032;1276;24319;-71
2022/07/19 08:34:14;;;;;;;2.90;2.10;;;;;;;26.67;43.10;99280.41;220105;1276;22893;-70
2022/07/19 08:39:17;;;;;;;2.20;2.00;;;;;;;26.79;42.45;99283.63;219919;1276;24407;-67
2022/07/19 08:44:19;;;;;;;4.30;2.20;;;;;;;26.93;42.08;99283.76;220033;1277;22681;-68
2022/07/19 08:49:22;;;;;;;2.70;2.10;;;;;;;27.07;41.17;99282.72;220292;1276;24316;-67
2022/07/19 08:54:24;;;;;;;2.40;2.00;;;;;;;27.21;40.69;99281.27;220145;1276;22774;-69
2022/07/19 08:59:34;;;;;;;2.50;1.90;;;;;;;27.29;39.94;99286.79;220157;1276;22637;-69
2022/07/19 09:04:36;;;;;;;3.00;1.80;;;;;;;27.39;39.61;99280.16;220112;1276;22568;-69
2022/07/19 09:09:38;;;;;;;2.10;1.80;;;;;;;27.57;39.07;99281.06;220009;1276;22652;-69
2022/07/19 09:14:41;;;;;;;2.30;1.80;;;;;;;27.77;38.63;99275.87;219824;1278;22604;-67
2022/07/19 09:19:45;;;;;;;4.80;4.40;;;;;;;27.96;38.03;99274.31;220029;1276;25264;-68
2022/07/19 09:24:50;;;;;;;2.50;2.30;;;;;;;28.13;37.44;99269.45;220214;1276;22545;-70
2022/07/19 09:29:55;;;;;;;1.80;1.70;;;;;;;28.23;37.45;99265.43;220233;1276;25274;-67
2022/07/19 09:35:03;;;;;;;5.00;1.90;;;;;;;28.41;37.18;99258.78;219924;1277;22593;-68
2022/07/19 09:40:08;;;;;;;2.30;1.80;;;;;;;28.52;37.18;99259.29;220098;1276;25331;-70
2022/07/19 09:45:13;;;;;;;2.40;1.90;;;;;;;28.56;36.48;99252.83;220490;1276;22557;-69
2022/07/19 09:50:17;;;;;;;3.90;2.10;;;;;;;28.57;36.49;99248.73;220265;1276;22474;-69
2022/07/19 09:55:20;;;;;;;2.70;2.40;;;;;;;28.68;36.17;99250.36;220463;1276;23839;-68
2022/07/19 10:00:24;;;;;;;3.80;2.00;;;;;;;28.73;35.64;99247.29;220220;1276;25630;-69
2022/07/19 10:05:30;;;;;;;2.30;2.00;;;;;;;28.76;35.37;99245.69;220531;1276;26500;-70
2022/07/19 10:10:33;;;;;;;2.70;1.80;;;;;;;28.76;35.18;99242.07;220135;1276;22735;-71
2022/07/19 10:15:39;;;;;;;2.30;2.00;;;;;;;28.83;35.13;99241.73;220435;1276;22604;-70
2022/07/19 10:20:55;;;;;;;3.50;2.70;;;;;;;29.01;35.32;99237.21;220374;1276;24279;-71
2022/07/19 10:26:55;;;;;;;5.80;4.80;;;;;;;29.28;35.21;99241.81;220147;1276;22560;-70
2022/07/19 10:32:07;;;;;;;4.70;3.50;;;;;;;29.41;34.30;99238.44;220176;1276;22560;-71
2022/07/19 10:37:09;;;;;;;3.10;2.50;;;;;;;29.49;34.45;99234.34;220299;1276;25371;-71
2022/07/19 10:42:17;;;;;;;4.80;2.80;;;;;;;29.64;34.02;99231.39;220324;1276;22569;-70
2022/07/19 10:47:21;;;;;;;6.70;2.30;;;;;;;29.74;33.77;99229.72;220291;1276;24276;-70
2022/07/19 10:52:26;;;;;;;3.60;2.10;;;;;;;29.82;33.40;99226.03;220246;1276;22556;-70
2022/07/19 10:57:37;;;;;;;3.00;2.70;;;;;;;29.88;33.29;99221.98;220379;1276;25416;-70
2022/07/19 11:02:40;;;;;;;2.70;2.30;;;;;;;29.94;33.30;99224.14;220533;1276;24448;-72
2022/07/19 11:07:51;;;;;;;3.00;1.80;;;;;;;30.18;33.68;99221.05;220302;1276;22556;-73
2022/07/19 11:12:55;;;;;;;2.20;2.00;;;;;;;30.48;33.46;99219.72;220040;1276;22926;-72
2022/07/19 11:18:03;;;;;;;3.90;1.80;;;;;;;30.55;32.61;99214.19;219746;1279;23845;-72
2022/07/19 11:23:06;;;;;;;2.40;2.20;;;;;;;30.67;32.89;99205.67;220230;1277;22595;-73
2022/07/19 11:28:21;;;;;;;4.50;2.10;;;;;;;30.78;32.71;99204.19;220287;1276;23852;-74
2022/07/19 11:33:23;;;;;;;4.00;2.50;;;;;;;30.96;32.59;99200.31;220306;1276;22663;-71
2022/07/19 11:38:45;;;;;;;2.90;2.20;;;;;;;30.92;31.56;99203.53;220111;1276;22549;-71
2022/07/19 11:43:59;;;;;;;1.80;1.70;;;;;;;30.76;31.54;99202.16;220251;1276;25206;-72
2022/07/19 11:49:18;;;;;;;3.00;1.90;;;;;;;30.79;31.71;99201.96;220368;1276;22572;-73
2022/07/19 11:54:22;;;;;;;4.50;3.80;;;;;;;30.88;32.00;99203.02;220609;1276;22803;-73
2022/07/19 11:59:27;;;;;;;2.60;2.40;;;;;;;30.97;31.88;99193.59;220271;1276;22675;-73
2022/07/19 12:04:37;;;;;;;4.10;2.10;;;;;;;30.94;31.39;99187.45;220075;1276;22557;-72
2022/07/19 12:09:39;;;;;;;2.30;2.10;;;;;;;30.87;31.39;99185.73;220502;1276;26351;-70
2022/07/19 12:14:45;;;;;;;3.50;2.20;;;;;;;30.86;31.45;99176.34;219906;1278;25422;-72
2022/07/19 12:19:55;;;;;;;3.00;2.40;;;;;;;30.90;31.57;99171.55;220277;1276;23372;-73
2022/07/19 12:25:00;;;;;;;3.20;2.30;;;;;;;30.92;31.36;99180.30;220334;1276;22583;-71
2022/07/19 12:30:05;;;;;;;2.80;1.90;;;;;;;30.88;31.54;99171.58;220210;1277;24977;-72
2022/07/19 12:35:17;;;;;;;5.40;3.30;;;;;;;31.04;31.74;99169.23;220340;1276;25386;-72
2022/07/19 12:40:22;;;;;;;35.40;7.80;;;;;;;31.14;31.21;99162.84;220247;1276;24263;-72
2022/07/19 12:45:28;;;;;;;2.50;2.30;;;;;;;31.21;31.45;99160.05;220149;1276;22938;-73
2022/07/19 12:50:32;;;;;;;2.40;1.80;;;;;;;31.26;30.92;99154.30;220170;1276;22591;-73
2022/07/19 12:55:36;;;;;;;2.10;2.00;;;;;;;31.15;30.39;99151.77;220007;1276;488017;-72
2022/07/19 13:00:41;;;;;;;2.90;2.20;;;;;;;31.03;30.48;99151.16;220192;1276;22538;-75
2022/07/19 13:05:45;;;;;;;2.60;2.10;;;;;;;30.97;30.46;99144.58;220193;1277;24993;-72
2022/07/19 13:10:50;;;;;;;2.00;1.80;;;;;;;30.92;30.17;99146.00;220174;1276;24260;-73
2022/07/19 13:15:52;;;;;;;2.20;1.60;;;;;;;30.83;30.26;99139.25;220244;1276;22562;-74
2022/07/19 13:20:54;;;;;;;5.20;1.90;;;;;;;30.87;30.45;99141.09;219947;1279;22691;-72
2022/07/19 13:25:57;;;;;;;2.80;2.40;;;;;;;31.01;30.46;99140.20;219743;1279;22581;-71
2022/07/19 13:30:59;;;;;;;2.90;2.70;;;;;;;31.11;30.20;99141.55;220113;1276;22703;-72
2022/07/19 13:36:01;;;;;;;3.30;2.40;;;;;;;31.23;30.37;99138.67;220046;1277;22569;-72
2022/07/19 13:41:05;;;;;;;3.30;2.40;;;;;;;31.27;29.96;99135.54;220184;1277;24107;-72
2022/07/19 13:46:07;;;;;;;5.50;5.00;;;;;;;31.30;30.18;99125.92;220008;1276;24329;-72
2022/07/19 13:51:12;;;;;;;3.70;2.30;;;;;;;31.42;30.09;99118.13;220275;1277;25529;-71
2022/07/19 13:56:14;;;;;;;2.50;2.20;;;;;;;31.43;29.84;99112.16;219988;1277;22723;-71
2022/07/19 14:01:17;;;;;;;7.30;5.60;;;;;;;31.50;30.11;99107.94;220257;1276;23421;-68
2022/07/19 14:06:39;;;;;;;2.30;2.00;;;;;;;31.51;30.17;99101.10;220236;1276;22604;-69
2022/07/19 14:11:43;;;;;;;2.90;2.40;;;;;;;31.52;29.87;99101.18;219965;1277;22598;-69
2022/07/19 14:16:45;;;;;;;3.10;2.10;;;;;;;31.49;29.66;99100.75;220251;1276;22601;-68
2022/07/19 14:21:48;;;;;;;3.20;2.60;;;;;;;31.49;29.87;99094.42;220020;1278;25558;-68
2022/07/19 14:26:50;;;;;;;3.90;3.50;;;;;;;31.66;29.87;99090.43;220112;1276;25257;-68
2022/07/19 14:31:53;;;;;;;2.40;2.20;;;;;;;31.78;29.93;99084.74;220264;1277;22550;-68
2022/07/19 14:36:55;;;;;;;3.20;2.20;;;;;;;31.88;29.80;99077.20;220212;1277;23272;-69
2022/07/19 14:42:00;;;;;;;2.20;2.00;;;;;;;31.93;29.71;99075.11;220043;1276;25537;-68
2022/07/19 14:47:02;;;;;;;2.30;2.10;;;;;;;31.93;29.56;99067.52;220209;1277;22700;-70
2022/07/19 14:52:05;;;;;;;3.90;2.20;;;;;;;32.01;30.21;99065.06;220193;1277;24276;-68
2022/07/19 14:57:08;;;;;;;3.10;2.00;;;;;;;32.12;29.72;99067.61;220044;1276;24309;-70
2022/07/19 15:02:10;;;;;;;2.80;2.60;;;;;;;32.12;29.61;99066.96;220125;1276;24002;-69
2022/07/19 15:07:13;;;;;;;3.40;2.20;;;;;;;32.22;29.19;99060.77;220272;1277;25424;-68
2022/07/19 15:12:15;;;;;;;2.50;2.30;;;;;;;32.24;29.27;99063.66;220192;1277;25574;-68
2022/07/19 15:17:18;;;;;;;2.80;2.10;;;;;;;32.19;28.98;99063.20;220192;1277;22540;-69
2022/07/19 15:22:21;;;;;;;2.90;2.20;;;;;;;32.22;29.17;99056.73;220245;1277;26423;-68
2022/07/19 15:27:24;;;;;;;3.50;2.90;;;;;;;32.23;28.96;99055.05;219927;1276;22617;-69
2022/07/19 15:32:26;;;;;;;3.60;2.60;;;;;;;32.05;28.92;99046.78;220238;1276;25308;-68
2022/07/19 15:37:28;;;;;;;2.60;2.40;;;;;;;31.91;29.43;99046.51;220366;1276;22544;-71
2022/07/19 15:42:31;;;;;;;3.40;2.50;;;;;;;31.88;29.38;99045.53;220315;1276;22771;-68
2022/07/19 15:47:41;;;;;;;3.30;2.60;;;;;;;31.79;29.38;99041.77;220322;1278;22587;-70
2022/07/19 15:52:45;;;;;;;3.70;2.70;;;;;;;31.72;29.46;99041.89;220058;1278;24772;-69
2022/07/19 15:57:48;;;;;;;2.80;2.20;;;;;;;31.73;29.29;99036.43;220278;1276;22541;-70
2022/07/19 16:02:58;;;;;;;5.40;2.60;;;;;;;31.69;29.38;99031.58;220181;1277;22627;-68
2022/07/19 16:08:01;;;;;;;3.30;2.60;;;;;;;31.70;29.62;99028.19;220383;1276;24267;-68
2022/07/19 16:13:03;;;;;;;2.70;2.50;;;;;;;31.59;29.21;99022.21;220047;1278;25247;-68
2022/07/19 16:18:05;;;;;;;3.20;2.80;;;;;;;31.49;29.65;99014.40;220135;1277;22709;-69
2022/07/19 16:23:08;;;;;;;3.00;2.50;;;;;;;31.50;30.03;99012.00;220039;1278;24330;-70
2022/07/19 16:28:10;;;;;;;3.60;2.30;;;;;;;31.53;29.93;99011.79;220251;1278;24387;-67
2022/07/19 16:33:13;;;;;;;3.10;2.40;;;;;;;31.44;29.66;99015.75;220149;1277;24299;-68
2022/07/19 16:38:15;;;;;;;2.80;2.40;;;;;;;31.35;29.78;99008.81;220235;1277;22563;-69
2022/07/19 16:43:24;;;;;;;3.80;3.10;;;;;;;31.27;29.98;99006.50;220035;1280;22579;-68
2022/07/19 16:48:28;;;;;;;3.00;2.70;;;;;;;31.18;30.14;99009.27;220120;1278;23775;-68
2022/07/19 16:53:30;;;;;;;4.90;2.50;;;;;;;31.04;30.27;99018.84;219844;1278;26403;-70
2022/07/19 16:58:33;;;;;;;2.80;2.50;;;;;;;30.95;30.54;99015.89;220087;1277;22644;-68
2022/07/19 17:03:36;;;;;;;3.00;2.60;;;;;;;30.88;30.66;99011.81;220072;1278;24198;-67
2022/07/19 17:08:51;;;;;;;3.90;3.00;;;;;;;30.80;30.77;99006.10;220096;1278;24312;-69
2022/07/19 17:13:54;;;;;;;5.30;2.40;;;;;;;30.70;30.99;99009.98;219943;1277;22614;-69
2022/07/19 17:19:02;;;;;;;3.80;2.70;;;;;;;30.56;30.82;99004.27;220104;1278;22570;-69
2022/07/19 17:24:05;;;;;;;4.20;2.50;;;;;;;30.91;31.24;99002.04;220188;1278;25477;-67
2022/07/19 17:29:07;;;;;;;4.60;3.50;;;;;;;32.19;30.91;99000.63;220071;1278;22549;-68
2022/07/19 17:34:10;;;;;;;3.80;2.50;;;;;;;33.60;30.46;99007.01;220090;1276;22552;-68
2022/07/19 17:39:12;;;;;;;3.90;2.60;;;;;;;34.73;29.42;99006.35;220090;1278;22712;-68
2022/07/19 17:44:19;;;;;;;6.50;2.60;;;;;;;35.56;28.71;99006.30;220080;1277;22560;-69
2022/07/19 17:49:21;;;;;;;3.60;2.40;;;;;;;35.34;27.89;99010.82;220165;1278;26503;-68
2022/07/19 17:54:24;;;;;;;6.30;2.80;;;;;;;34.39;27.98;99016.84;220153;1277;26403;-69
2022/07/19 17:59:27;;;;;;;2.70;2.50;;;;;;;33.40;28.31;99014.42;220186;1278;22595;-68
2022/07/19 18:04:29;;;;;;;3.10;2.40;;;;;;;32.32;29.10;99013.09;220093;1276;22543;-67
2022/07/19 18:09:31;;;;;;;6.20;2.50;;;;;;;31.47;29.80;99011.98;220199;1277;25317;-68
2022/07/19 18:14:33;;;;;;;4.10;2.50;;;;;;;30.80;30.48;99016.75;220182;1277;22568;-68
2022/07/19 18:19:36;;;;;;;3.60;2.70;;;;;;;30.19;31.22;99016.54;220226;1278;22593;-68
2022/07/19 18:24:38;;;;;;;3.90;3.20;;;;;;;29.63;31.89;99023.60;220208;1278;22777;-68
2022/07/19 18:29:51;;;;;;;4.00;2.80;;;;;;;29.08;32.53;99021.92;220194;1277;25319;-69
2022/07/19 18:34:53;;;;;;;4.70;3.00;;;;;;;28.58;33.42;99018.91;220012;1276;25471;-67
2022/07/19 18:39:56;;;;;;;7.90;6.10;;;;;;;28.13;34.14;99022.95;220145;1278;24227;-69
2022/07/19 18:44:58;;;;;;;5.80;5.00;;;;;;;27.70;34.83;99024.27;220171;1277;24295;-68
2022/07/19 18:50:00;;;;;;;4.30;3.80;;;;;;;27.28;35.42;99023.73;220128;1278;23957;-68
2022/07/19 18:55:04;;;;;;;7.10;3.70;;;;;;;26.89;36.14;99026.58;219915;1278;24329;-67
2022/07/19 19:00:08;;;;;;;6.10;4.30;;;;;;;26.51;36.94;99030.13;220050;1277;22577;-69
2022/07/19 19:05:10;;;;;;;6.10;4.70;;;;;;;26.16;37.69;99036.23;220173;1277;25378;-67
2022/07/19 19:10:13;;;;;;;8.20;4.80;;;;;;;25.85;38.25;99042.04;220180;1277;25542;-67
2022/07/19 19:15:15;;;;;;;6.90;5.10;;;;;;;25.55;38.72;99046.98;220160;1276;22572;-68
2022/07/19 19:20:17;;;;;;;6.20;4.60;;;;;;;25.26;39.61;99052.02;220126;1277;22646;-69
2022/07/19 19:25:20;;;;;;;4.90;4.40;;;;;;;24.98;40.20;99055.31;220148;1277;23809;-68
2022/07/19 19:30:22;;;;;;;5.00;4.40;;;;;;;24.72;41.05;99057.66;219210;1278;25215;-68
2022/07/19 19:35:25;;;;;;;10.30;6.60;;;;;;;24.46;42.04;99060.59;220185;1277;22576;-67
2022/07/19 19:40:27;;;;;;;8.90;5.00;;;;;;;24.22;42.43;99062.83;220086;1276;22654;-68
2022/07/19 19:45:29;;;;;;;5.60;4.20;;;;;;;23.98;42.97;99064.64;220035;1277;22684;-68
2022/07/19 19:50:33;;;;;;;6.10;4.70;;;;;;;23.75;43.96;99067.90;220046;1277;23545;-67
2022/07/19 19:55:35;;;;;;;5.60;4.60;;;;;;;23.52;44.31;99066.27;219402;1277;22648;-68
2022/07/19 20:00:38;;;;;;;6.60;4.40;;;;;;;23.32;44.44;99070.71;220110;1277;22647;-66
2022/07/19 20:05:41;;;;;;;24.90;20.60;;;;;;;23.14;45.09;99075.51;219194;1276;22625;-67
2022/07/19 20:10:55;;;;;;;12.70;8.30;;;;;;;22.96;45.85;99079.40;219181;1277;25272;-68
2022/07/19 20:15:58;;;;;;;7.10;5.10;;;;;;;22.78;46.22;99080.09;220047;1277;22743;-68
2022/07/19 20:21:11;;;;;;;8.40;5.10;;;;;;;22.60;46.58;99087.82;220071;1277;22551;-67
2022/07/19 20:26:13;;;;;;;5.20;3.90;;;;;;;22.44;46.82;99086.96;220135;1276;25969;-67
2022/07/19 20:31:19;;;;;;;5.30;4.10;;;;;;;22.31;47.07;99086.60;220250;1276;22555;-67
2022/07/19 20:36:34;;;;;;;4.80;4.00;;;;;;;22.21;47.22;99086.25;219462;1277;24958;-66
2022/07/19 20:41:57;;;;;;;8.10;5.60;;;;;;;22.12;47.54;99083.49;219176;1276;22551;-67
2022/07/19 20:46:59;;;;;;;9.00;6.40;;;;;;;22.03;47.58;99082.39;220187;1277;22574;-67
2022/07/19 20:52:02;;;;;;;5.60;4.10;;;;;;;21.94;48.17;99085.15;220222;1276;24295;-68
2022/07/19 20:57:04;;;;;;;23.10;18.80;;;;;;;21.84;48.69;99085.71;220116;1276;22560;-67
2022/07/19 21:02:18;;;;;;;10.80;6.40;;;;;;;21.74;49.04;99085.65;220097;1277;22636;-67
2022/07/19 21:07:27;;;;;;;8.80;5.50;;;;;;;21.62;49.62;99082.44;220104;1277;22623;-67
2022/07/19 21:12:49;;;;;;;7.90;4.60;;;;;;;21.51;49.92;99082.17;219212;1276;24265;-69
2022/07/19 21:18:02;;;;;;;9.20;4.80;;;;;;;21.40;50.61;99088.59;220099;1276;22609;-71
2022/07/19 21:23:05;;;;;;;8.20;4.80;;;;;;;21.29;50.95;99091.76;220008;1276;22714;-69
2022/07/19 21:28:07;;;;;;;9.90;5.60;;;;;;;21.18;51.33;99094.23;220044;1276;24301;-72
2022/07/19 21:33:12;;;;;;;9.10;5.30;;;;;;;21.07;51.58;99091.21;219995;1276;24318;-70
2022/07/19 21:38:19;;;;;;;7.20;4.90;;;;;;;20.95;52.23;99098.84;219023;1276;22717;-69
2022/07/19 21:43:25;;;;;;;8.90;4.80;;;;;;;20.85;52.70;99095.94;219235;1276;22543;-70
2022/07/19 21:48:27;;;;;;;6.40;4.80;;;;;;;20.69;53.04;99098.87;218945;1277;22760;-69
2022/07/19 21:53:30;;;;;;;8.90;5.10;;;;;;;20.57;53.43;99093.55;218991;1276;22750;-70
2022/07/19 21:58:34;;;;;;;8.70;5.10;;;;;;;20.45;54.16;99092.84;219268;1277;25429;-69
2022/07/19 22:03:39;;;;;;;7.80;5.00;;;;;;;20.34;54.98;99096.45;219114;1276;25326;-70
2022/07/19 22:08:55;;;;;;;10.10;4.80;;;;;;;20.27;55.86;99090.25;219067;1276;24335;-70
2022/07/19 22:14:06;;;;;;;9.60;4.60;;;;;;;20.23;56.30;99087.87;219005;1276;24298;-70
2022/07/19 22:19:08;;;;;;;7.10;4.30;;;;;;;20.16;56.71;99085.75;219143;1276;24262;-69
2022/07/19 22:24:11;;;;;;;6.90;5.00;;;;;;;20.09;56.96;99089.97;219155;1276;24233;-70
2022/07/19 22:29:13;;;;;;;7.40;4.80;;;;;;;20.00;57.53;99095.39;219162;1276;22585;-69
2022/07/19 22:34:16;;;;;;;8.20;5.30;;;;;;;19.95;58.49;99103.45;219018;1276;22543;-69
2022/07/19 22:39:21;;;;;;;7.40;4.70;;;;;;;19.85;59.01;99105.20;219173;1276;22594;-70
2022/07/19 22:44:24;;;;;;;10.00;5.20;;;;;;;19.75;59.35;99100.75;220003;1276;22585;-69
2022/07/19 22:49:26;;;;;;;10.20;5.80;;;;;;;19.64;59.73;99100.79;219054;1276;22961;-70
2022/07/19 22:54:29;;;;;;;9.10;5.40;;;;;;;19.51;60.20;99099.45;219051;1276;22709;-73
2022/07/19 22:59:31;;;;;;;7.90;5.40;;;;;;;19.36;60.29;99098.99;219266;1277;24163;-70
2022/07/19 23:04:34;;;;;;;8.60;5.40;;;;;;;19.23;60.57;99099.59;218837;1276;22965;-69
2022/07/19 23:09:41;;;;;;;8.50;5.10;;;;;;;19.13;60.92;99100.95;218912;1276;22583;-69
2022/07/19 23:14:43;;;;;;;7.00;5.10;;;;;;;19.01;61.13;99101.19;219203;1276;25421;-70
2022/07/19 23:19:45;;;;;;;8.10;5.00;;;;;;;18.91;61.46;99103.02;218882;1276;22647;-70
2022/07/19 23:24:50;;;;;;;7.00;4.90;;;;;;;18.81;61.83;99111.42;218982;1276;25514;-70
2022/07/19 23:29:53;;;;;;;6.70;5.00;;;;;;;18.71;62.01;99117.03;218882;1276;23849;-70
2022/07/19 23:35:05;;;;;;;8.40;4.90;;;;;;;18.58;62.10;99117.13;219019;1276;22727;-69
2022/07/19 23:40:10;;;;;;;8.90;5.60;;;;;;;18.47;62.59;99111.79;218926;1276;26406;-72
2022/07/19 23:45:13;;;;;;;9.20;5.10;;;;;;;18.38;62.76;99114.92;218934;1276;23968;-70
2022/07/19 23:50:16;;;;;;;11.00;5.60;;;;;;;18.29;63.08;99113.02;218983;1276;25445;-68
2022/07/19 23:55:18;;;;;;;8.20;5.60;;;;;;;18.23;63.45;99106.18;219123;1276;25376;-69
